createdAt,value
2018-01-23T07:40:58.803Z,8.70
2018-01-23T07:43:26.290Z,9.00
2018-01-23T07:45:53.784Z,8.80
2018-01-23T07:48:22.047Z,8.60
2018-01-23T07:50:50.305Z,8.60
2018-01-23T07:53:19.336Z,8.50
2018-01-23T07:55:46.841Z,8.50
2018-01-23T07:58:14.345Z,8.50
2018-01-23T08:00:41.837Z,8.50
2018-01-23T08:03:10.149Z,8.50
2018-01-23T08:05:37.661Z,8.50
2018-01-23T08:08:05.941Z,8.40
2018-01-23T08:10:34.194Z,8.50
2018-01-23T08:13:01.710Z,8.40
2018-01-23T08:15:29.210Z,8.50
2018-01-23T08:17:56.697Z,8.50
2018-01-23T08:20:24.963Z,8.50
2018-01-23T08:22:54.239Z,8.50
2018-01-23T08:25:21.742Z,8.50
2018-01-23T08:27:50.029Z,8.60
2018-01-23T08:30:17.552Z,8.50
2018-01-23T08:32:45.055Z,8.60
2018-01-23T08:35:13.457Z,8.60
2018-01-23T08:37:40.977Z,8.60
2018-01-23T08:40:09.233Z,8.60
2018-01-23T08:42:37.510Z,8.60
2018-01-23T08:45:05.839Z,8.60
2018-01-23T08:47:34.081Z,8.60
2018-01-23T08:50:02.341Z,8.70
2018-01-23T08:52:31.618Z,8.70
2018-01-23T08:54:59.128Z,8.60
2018-01-23T08:57:26.637Z,8.70
2018-01-23T08:59:54.143Z,8.70
2018-01-23T09:02:21.657Z,8.70
2018-01-23T09:04:49.169Z,8.80
2018-01-23T09:07:16.667Z,8.80
2018-01-23T09:09:44.190Z,8.70
2018-01-23T09:12:11.684Z,8.70
2018-01-23T09:14:39.193Z,8.80
2018-01-23T09:17:06.701Z,8.70
2018-01-23T09:19:34.187Z,8.80
2018-01-23T09:22:02.468Z,8.80
2018-01-23T09:24:30.718Z,8.80
2018-01-23T09:26:58.220Z,8.80
2018-01-23T09:29:26.473Z,8.80
2018-01-23T09:31:53.982Z,8.80
2018-01-23T09:34:21.482Z,8.80
2018-01-23T09:36:48.973Z,8.80
2018-01-23T09:39:16.493Z,8.80
2018-01-23T09:41:43.977Z,8.80
2018-01-23T09:44:12.248Z,8.90
2018-01-23T09:46:40.563Z,8.80
2018-01-23T09:49:08.069Z,8.90
2018-01-23T09:51:35.553Z,8.90
2018-01-23T09:54:03.822Z,9.00
2018-01-23T09:56:32.073Z,9.00
2018-01-23T09:58:59.593Z,9.00
2018-01-23T10:01:27.085Z,9.00
2018-01-23T10:03:54.578Z,9.00
2018-01-23T10:06:22.884Z,9.10
2018-01-23T10:08:50.401Z,9.00
2018-01-23T10:11:17.992Z,9.10
2018-01-23T10:13:45.713Z,9.10
2018-01-23T10:16:13.226Z,9.20
2018-01-23T10:18:40.717Z,9.20
2018-01-23T10:21:08.213Z,9.30
2018-01-23T10:23:36.469Z,9.40
2018-01-23T10:26:03.977Z,9.40
2018-01-23T10:28:31.470Z,9.50
2018-01-23T10:30:59.025Z,9.50
2018-01-23T10:33:26.521Z,9.50
2018-01-23T10:35:54.798Z,9.60
2018-01-23T10:38:23.045Z,9.60
2018-01-23T10:40:50.529Z,9.50
2018-01-23T10:43:18.801Z,9.50
2018-01-23T10:45:46.288Z,9.60
2018-01-23T10:48:13.798Z,9.50
2018-01-23T10:50:41.281Z,9.50
2018-01-23T10:53:10.556Z,9.50
2018-01-23T10:55:38.046Z,9.50
2018-01-23T10:58:06.317Z,9.50
2018-01-23T11:00:40.221Z,9.60
2018-01-23T11:03:07.729Z,9.50
2018-01-23T11:05:35.240Z,9.60
2018-01-23T11:08:03.510Z,9.60
2018-01-23T11:10:31.793Z,9.60
2018-01-23T11:13:00.110Z,9.60
2018-01-23T11:15:27.620Z,9.60
2018-01-23T11:17:55.105Z,9.70
2018-01-23T11:22:08.120Z,9.70
2018-01-23T11:24:35.689Z,9.70
2018-01-23T15:38:27.861Z,11.40
2018-01-23T15:40:56.125Z,11.10
2018-01-23T15:43:24.414Z,11.10
2018-01-23T15:45:52.697Z,11.00
2018-01-23T15:48:20.949Z,10.80
2018-01-23T15:50:49.209Z,10.70
2018-01-23T15:53:16.726Z,10.70
2018-01-23T15:55:44.221Z,10.70
2018-01-23T15:58:11.783Z,10.70
2018-01-23T16:00:39.268Z,10.70
2018-01-23T16:03:07.553Z,10.60
2018-01-23T16:05:35.822Z,10.60
2018-01-23T16:08:04.093Z,10.60
2018-01-23T16:10:31.606Z,10.60
2018-01-23T16:12:59.122Z,10.60
2018-01-23T16:15:27.400Z,10.60
2018-01-23T16:17:55.674Z,10.60
2018-01-23T16:20:23.957Z,10.50
2018-01-23T16:22:52.262Z,10.60
2018-01-23T16:25:19.778Z,10.50
2018-01-23T16:27:49.087Z,10.60
2018-01-23T16:30:17.624Z,10.60
2018-01-23T16:32:45.945Z,10.50
2018-01-23T16:35:14.214Z,10.50
2018-01-23T16:37:41.890Z,10.50
2018-01-23T16:40:10.191Z,10.50
2018-01-23T16:42:37.689Z,10.50
2018-01-23T16:45:05.211Z,10.50
2018-01-23T16:47:32.731Z,10.50
2018-01-23T16:50:01.013Z,10.40
2018-01-23T16:52:29.264Z,10.40
2018-01-23T16:54:56.771Z,10.40
2018-01-23T16:57:24.278Z,10.50
2018-01-23T16:59:51.806Z,10.50
2018-01-23T17:02:19.294Z,10.40
2018-01-23T17:04:46.933Z,10.40
2018-01-23T17:07:14.430Z,10.40
2018-01-23T17:09:42.044Z,10.40
2018-01-23T17:12:09.554Z,10.50
2018-01-23T17:14:37.065Z,10.50
2018-01-23T17:17:04.580Z,10.50
2018-01-23T17:19:32.844Z,10.50
2018-01-23T17:22:00.377Z,10.50
2018-01-23T17:24:28.684Z,10.50
2018-01-23T17:26:56.265Z,10.50
2018-01-23T17:29:23.807Z,10.50
2018-01-23T17:31:51.504Z,10.40
2018-01-23T17:34:19.209Z,10.40
2018-01-23T17:36:46.721Z,10.50
2018-01-23T17:39:15.013Z,10.40
2018-01-23T17:41:42.527Z,10.40
2018-01-23T17:44:10.034Z,10.50
2018-01-23T17:46:37.553Z,10.50
2018-01-23T17:49:05.814Z,10.50
2018-01-23T17:51:33.323Z,10.50
2018-01-23T17:54:00.877Z,10.40
2018-01-23T17:56:28.406Z,10.40
2018-01-23T17:58:55.945Z,10.40
2018-01-23T18:01:23.478Z,10.40
2018-01-23T18:03:50.982Z,10.40
2018-01-23T18:06:19.289Z,10.40
2018-01-23T18:08:47.772Z,10.40
2018-01-23T18:11:15.404Z,10.50
2018-01-23T18:13:42.950Z,10.50
2018-01-23T18:16:11.605Z,10.50
2018-01-23T18:18:39.142Z,10.50
2018-01-23T18:21:06.779Z,10.50
2018-01-23T18:23:35.067Z,10.50
2018-01-23T18:26:02.605Z,10.50
2018-01-23T18:28:30.902Z,10.50
2018-01-23T18:31:00.909Z,10.50
2018-01-23T18:33:28.441Z,10.40
2018-01-23T18:35:56.035Z,10.50
2018-01-23T18:38:24.327Z,10.40
2018-01-23T18:40:51.845Z,10.40
2018-01-23T18:43:19.362Z,10.40
2018-01-23T18:45:46.925Z,10.40
2018-01-23T18:48:15.473Z,10.40
2018-01-23T18:50:43.789Z,10.40
2018-01-23T18:53:11.342Z,10.40
2018-01-23T18:55:39.153Z,10.40
2018-01-23T18:58:07.501Z,10.40
2018-01-23T19:00:36.045Z,10.40
2018-01-23T19:03:04.385Z,10.40
2018-01-23T19:05:31.922Z,10.40
2018-01-23T19:07:59.426Z,10.40
2018-01-23T19:10:27.738Z,10.40
2018-01-23T19:12:55.336Z,10.40
2018-01-23T19:15:22.901Z,10.50
2018-01-23T19:17:50.439Z,10.40
2018-01-23T19:20:17.948Z,10.40
2018-01-23T19:22:46.229Z,10.50
2018-01-23T19:25:14.645Z,10.40
2018-01-23T19:27:42.228Z,10.40
2018-01-23T19:30:10.105Z,10.40
2018-01-23T19:32:37.681Z,10.40
2018-01-23T19:35:05.254Z,10.40
2018-01-23T19:37:33.582Z,10.40
2018-01-23T19:40:01.146Z,10.40
2018-01-23T19:42:28.737Z,10.40
2018-01-23T19:44:57.038Z,10.40
2018-01-23T19:47:25.368Z,10.40
2018-01-23T19:50:55.617Z,10.40
2018-01-23T19:53:23.193Z,10.40
2018-01-23T19:55:52.556Z,10.50
2018-01-23T19:58:20.182Z,10.40
2018-01-23T20:00:47.686Z,10.50
2018-01-23T20:03:15.217Z,10.50
2018-01-23T20:05:42.994Z,10.50
2018-01-23T20:08:10.522Z,10.50
2018-01-23T20:10:38.037Z,10.50
2018-01-23T20:13:05.557Z,10.50
2018-01-23T20:15:33.114Z,10.50
2018-01-23T20:18:00.730Z,10.50
2018-01-23T20:20:28.248Z,10.50
2018-01-23T20:22:55.863Z,10.50
2018-01-23T20:25:24.173Z,10.50
2018-01-23T20:27:51.678Z,10.50
2018-01-23T20:30:19.166Z,10.50
2018-01-23T20:32:47.467Z,10.60
2018-01-23T20:35:15.045Z,10.60
2018-01-23T20:37:42.604Z,10.60
2018-01-23T20:40:10.126Z,10.60
2018-01-23T20:42:38.549Z,10.60
2018-01-23T20:45:06.191Z,10.60
2018-01-23T20:47:33.704Z,10.60
2018-01-23T20:50:01.260Z,10.60
2018-01-23T20:52:29.575Z,10.70
2018-01-23T20:54:57.216Z,10.60
2018-01-23T20:57:25.479Z,10.70
2018-01-23T20:59:53.110Z,10.60
2018-01-23T21:02:20.653Z,10.70
2018-01-23T21:04:48.191Z,10.70
2018-01-23T21:07:16.485Z,10.70
2018-01-23T21:09:44.069Z,10.70
2018-01-23T21:12:11.718Z,10.70
2018-01-23T21:14:40.143Z,10.70
2018-01-23T21:17:08.442Z,10.70
2018-01-23T21:19:35.990Z,10.70
2018-01-23T21:22:04.390Z,10.70
2018-01-23T21:24:31.925Z,10.70
2018-01-23T21:27:00.241Z,10.80
2018-01-23T21:29:27.793Z,10.70
2018-01-23T21:31:55.291Z,10.80
2018-01-23T21:34:22.810Z,10.70
2018-01-23T21:36:50.318Z,10.80
2018-01-23T21:39:17.833Z,10.70
2018-01-23T21:41:45.328Z,10.70
2018-01-23T21:44:12.830Z,10.80
2018-01-23T21:46:41.101Z,10.80
2018-01-23T21:49:09.453Z,10.80
2018-01-23T21:51:36.965Z,10.80
2018-01-23T21:54:04.460Z,10.80
2018-01-23T21:56:32.090Z,10.80
2018-01-23T21:58:59.613Z,10.80
2018-01-23T22:01:27.865Z,10.80
2018-01-23T22:03:55.369Z,10.80
2018-01-23T22:06:22.877Z,10.80
2018-01-23T22:08:50.502Z,10.80
2018-01-23T22:11:17.991Z,10.80
2018-01-23T22:13:45.514Z,10.90
2018-01-23T22:16:13.009Z,10.90
2018-01-23T22:18:40.507Z,10.90
2018-01-23T22:21:08.785Z,10.90
2018-01-23T22:23:37.637Z,10.90
2018-01-23T22:26:05.169Z,10.90
2018-01-23T22:28:32.665Z,10.90
2018-01-23T22:31:01.019Z,10.90
2018-01-23T22:33:28.525Z,10.90
2018-01-23T22:35:56.794Z,11.00
2018-01-23T22:38:25.078Z,10.90
2018-01-23T22:40:53.345Z,10.90
2018-01-23T22:43:21.634Z,10.90
2018-01-23T22:45:49.984Z,10.90
2018-01-23T22:48:17.509Z,10.90
2018-01-23T22:50:45.009Z,10.90
2018-01-23T22:53:12.622Z,10.90
2018-01-23T22:55:40.507Z,10.90
2018-01-23T22:58:08.556Z,10.90
2018-01-23T23:00:36.062Z,10.90
2018-01-23T23:03:03.556Z,10.90
2018-01-23T23:05:31.813Z,11.00
2018-01-23T23:07:59.324Z,11.00
2018-01-23T23:10:26.846Z,11.00
2018-01-23T23:12:55.294Z,11.00
2018-01-23T23:15:22.796Z,11.00
2018-01-23T23:17:50.425Z,11.10
2018-01-23T23:20:17.942Z,11.00
